Time;durP1;ratioP1;P1;durP2;ratioP2;P2;SDS_P1;SDS_P2;PMS_P1;PMS_P2;Temp;Humidity;BMP_temperature;BMP_pressure;BME280_temperature;BME280_humidity;BME280_pressure;Samples;Min_cycle;Max_cycle;Signal;HPM_P1;HPM_P2
2024/05/08 00:02:22;;;;;;;15.77;14.43;;;16.10;99.90;;;;;;7518744;26;20228;-74
2024/05/08 00:05:48;;;;;;;17.33;15.77;;;16.00;99.90;;;;;;7508895;26;20278;-73
2024/05/08 00:09:11;;;;;;;16.70;15.23;;;15.90;99.90;;;;;;7503152;26;20234;-73
2024/05/08 00:12:34;;;;;;;15.93;14.73;;;15.90;99.90;;;;;;7514163;26;20228;-73
2024/05/08 00:15:57;;;;;;;15.38;14.18;;;15.90;99.90;;;;;;7513649;26;20232;-73
2024/05/08 00:19:20;;;;;;;17.52;16.02;;;16.00;99.90;;;;;;7512967;26;20232;-74
2024/05/08 00:22:46;;;;;;;17.55;15.65;;;16.00;99.90;;;;;;7521314;26;20244;-73
2024/05/08 00:26:09;;;;;;;17.52;16.13;;;16.00;99.90;;;;;;7506841;26;20233;-74
2024/05/08 00:29:32;;;;;;;16.40;15.05;;;16.00;99.90;;;;;;7499233;26;20241;-74
2024/05/08 00:32:55;;;;;;;16.35;15.15;;;15.90;99.90;;;;;;7505778;26;20233;-74
2024/05/08 00:36:21;;;;;;;17.98;16.45;;;15.80;99.90;;;;;;7494239;26;20234;-74
2024/05/08 00:39:48;;;;;;;17.67;16.38;;;15.80;99.90;;;;;;7521891;26;20302;-75
2024/05/08 00:43:12;;;;;;;17.25;15.90;;;15.70;99.90;;;;;;7503119;26;20988;-73
2024/05/08 00:46:35;;;;;;;16.40;15.10;;;15.70;99.90;;;;;;7507176;26;20272;-73
2024/05/08 00:49:58;;;;;;;15.98;14.68;;;15.70;99.90;;;;;;7522415;26;20270;-73
2024/05/08 00:53:22;;;;;;;15.32;14.13;;;15.80;99.90;;;;;;7512525;26;20229;-74
2024/05/08 00:56:47;;;;;;;15.95;14.60;;;15.90;99.90;;;;;;7502634;26;20238;-73
2024/05/08 01:00:12;;;;;;;16.40;15.10;;;15.90;99.90;;;;;;7510432;26;20225;-74
2024/05/08 01:03:35;;;;;;;15.82;14.63;;;15.90;99.90;;;;;;7521915;26;20610;-74
2024/05/08 01:06:58;;;;;;;15.18;14.07;;;15.90;99.90;;;;;;7501306;26;20233;-73
2024/05/08 01:10:21;;;;;;;15.30;14.20;;;15.80;99.90;;;;;;7510657;26;20228;-73
2024/05/08 01:13:47;;;;;;;15.70;14.32;;;15.80;99.90;;;;;;7499900;26;20234;-75
2024/05/08 01:17:10;;;;;;;14.45;13.35;;;15.80;99.90;;;;;;7525590;26;20228;-73
2024/05/08 01:20:36;;;;;;;15.43;14.23;;;15.80;99.90;;;;;;7510004;26;20275;-74
2024/05/08 01:24:02;;;;;;;16.02;14.82;;;15.70;99.90;;;;;;7512490;26;20615;-75
2024/05/08 01:27:25;;;;;;;14.82;13.73;;;15.80;99.90;;;;;;7506666;26;20642;-74
2024/05/08 01:30:48;;;;;;;16.10;14.77;;;15.80;99.90;;;;;;7511361;26;20332;-73
2024/05/08 01:34:11;;;;;;;15.02;13.90;;;15.80;99.90;;;;;;7513970;26;20333;-75
2024/05/08 01:37:34;;;;;;;14.68;13.48;;;15.70;99.90;;;;;;7503391;26;20268;-74
2024/05/08 01:41:00;;;;;;;16.10;14.90;;;15.80;99.90;;;;;;7506890;26;20333;-74
2024/05/08 01:44:23;;;;;;;14.57;13.57;;;15.60;99.90;;;;;;7513876;26;20648;-74
2024/05/08 01:47:46;;;;;;;15.43;14.05;;;15.70;99.90;;;;;;7507608;26;20307;-74
2024/05/08 01:51:09;;;;;;;15.90;14.50;;;15.70;99.90;;;;;;7516062;26;21271;-73
2024/05/08 01:54:32;;;;;;;15.80;14.55;;;15.70;99.90;;;;;;7505266;26;20273;-76
2024/05/08 01:57:58;;;;;;;14.85;13.55;;;15.70;99.90;;;;;;7512035;26;20233;-74
2024/05/08 02:01:21;;;;;;;15.55;14.20;;;15.60;99.90;;;;;;7512831;26;20345;-74
2024/05/08 02:04:44;;;;;;;15.70;14.23;;;15.70;99.90;;;;;;7508204;26;20279;-74
2024/05/08 02:08:07;;;;;;;16.15;14.93;;;15.70;99.90;;;;;;7507671;26;20285;-74
2024/05/08 02:11:30;;;;;;;15.45;14.25;;;15.60;99.90;;;;;;7518538;26;20328;-74
2024/05/08 02:14:56;;;;;;;16.65;15.35;;;15.50;99.90;;;;;;7501317;26;20341;-74
2024/05/08 02:18:19;;;;;;;16.67;15.27;;;15.50;99.90;;;;;;7505345;26;20270;-74
2024/05/08 02:21:42;;;;;;;16.00;14.60;;;15.60;99.90;;;;;;7517323;26;20279;-75
2024/05/08 02:25:05;;;;;;;17.42;15.93;;;15.60;99.90;;;;;;7517110;26;20346;-74
2024/05/08 02:28:28;;;;;;;16.15;14.80;;;15.50;99.90;;;;;;7518008;26;20280;-74
2024/05/08 02:31:54;;;;;;;15.52;14.23;;;15.60;99.90;;;;;;7509196;26;20229;-74
2024/05/08 02:35:17;;;;;;;15.32;14.13;;;15.60;99.90;;;;;;7509475;26;20228;-73
2024/05/08 02:38:40;;;;;;;16.10;14.80;;;15.50;99.90;;;;;;7518341;26;20278;-74
2024/05/08 02:42:03;;;;;;;16.80;15.40;;;15.50;99.90;;;;;;7512887;26;20270;-74
2024/05/08 02:45:26;;;;;;;16.38;14.95;;;15.50;99.90;;;;;;7515469;26;20236;-74
2024/05/08 02:48:52;;;;;;;16.25;14.95;;;15.50;99.90;;;;;;7503640;26;20262;-74
2024/05/08 02:52:15;;;;;;;15.48;14.27;;;15.60;99.90;;;;;;7512216;26;20245;-75
2024/05/08 02:55:38;;;;;;;16.48;14.98;;;15.50;99.90;;;;;;7503298;26;20229;-74
2024/05/08 02:59:01;;;;;;;16.42;15.20;;;15.60;99.90;;;;;;7511252;26;20732;-74
2024/05/08 03:02:24;;;;;;;15.55;14.15;;;15.60;99.90;;;;;;7508685;26;20333;-74
2024/05/08 03:05:50;;;;;;;16.73;15.32;;;15.60;99.90;;;;;;7516581;26;20240;-74
2024/05/08 03:09:15;;;;;;;16.13;14.82;;;15.60;99.90;;;;;;7513436;26;20233;-74
2024/05/08 03:12:38;;;;;;;16.42;15.10;;;15.50;99.90;;;;;;7513809;26;20228;-73
2024/05/08 03:16:01;;;;;;;16.70;15.50;;;15.50;99.90;;;;;;7502017;26;20240;-75
2024/05/08 03:19:24;;;;;;;17.33;15.93;;;15.50;99.90;;;;;;7515630;26;20248;-74
2024/05/08 03:22:50;;;;;;;18.00;16.55;;;15.50;99.90;;;;;;7505619;26;20229;-74
2024/05/08 03:26:13;;;;;;;17.50;16.15;;;15.50;99.90;;;;;;7513860;26;20228;-74
2024/05/08 03:29:36;;;;;;;16.80;15.40;;;15.30;99.90;;;;;;7519407;26;20582;-74
2024/05/08 03:32:59;;;;;;;16.50;15.00;;;15.50;99.90;;;;;;7519066;26;20270;-73
2024/05/08 03:36:22;;;;;;;17.20;15.80;;;15.40;99.90;;;;;;7508133;26;20340;-74
2024/05/08 03:39:48;;;;;;;18.42;16.73;;;15.50;99.90;;;;;;7510584;26;20715;-74
2024/05/08 03:43:14;;;;;;;19.00;17.40;;;15.40;99.90;;;;;;7495452;26;20229;-73
2024/05/08 03:46:38;;;;;;;18.35;16.83;;;15.40;99.90;;;;;;7498791;26;20232;-72
2024/05/08 03:50:01;;;;;;;17.55;16.13;;;15.30;99.90;;;;;;7520885;26;20229;-72
2024/05/08 03:53:25;;;;;;;19.05;17.52;;;15.30;99.90;;;;;;7519137;26;20257;-74
2024/05/08 03:56:51;;;;;;;17.65;16.15;;;15.30;99.90;;;;;;7513675;26;20228;-75
2024/05/08 04:00:14;;;;;;;18.00;16.40;;;15.40;99.90;;;;;;7522412;26;20278;-73
2024/05/08 04:03:37;;;;;;;18.25;16.73;;;15.30;99.90;;;;;;7522182;26;20228;-71
2024/05/08 04:07:00;;;;;;;20.95;19.15;;;15.30;99.90;;;;;;7505022;26;20604;-73
2024/05/08 04:10:23;;;;;;;19.83;18.13;;;15.40;99.90;;;;;;7525031;26;20228;-74
2024/05/08 04:13:48;;;;;;;18.73;17.17;;;15.40;99.90;;;;;;7512043;26;20738;-73
2024/05/08 04:17:11;;;;;;;18.58;16.77;;;15.40;99.90;;;;;;7516631;26;20340;-73
2024/05/08 04:20:34;;;;;;;18.42;16.88;;;15.40;99.90;;;;;;7507610;26;20553;-74
2024/05/08 04:23:57;;;;;;;20.63;18.90;;;15.20;99.90;;;;;;7521178;26;20347;-73
2024/05/08 04:27:20;;;;;;;19.92;18.17;;;15.20;99.90;;;;;;7519149;26;20220;-73
2024/05/08 04:30:45;;;;;;;19.20;17.60;;;15.30;99.90;;;;;;7516317;26;20592;-72
2024/05/08 04:34:08;;;;;;;19.73;18.02;;;15.30;99.90;;;;;;7511873;26;20232;-72
2024/05/08 04:37:31;;;;;;;19.63;18.02;;;15.30;99.90;;;;;;7513050;26;20244;-74
2024/05/08 04:40:54;;;;;;;20.55;18.85;;;15.30;99.90;;;;;;7520671;26;20224;-73
2024/05/08 04:44:17;;;;;;;21.35;19.30;;;15.20;99.90;;;;;;7521456;26;20337;-74
2024/05/08 04:47:42;;;;;;;23.67;21.73;;;15.10;99.90;;;;;;7507018;26;20229;-72
2024/05/08 04:51:06;;;;;;;22.10;19.98;;;15.10;99.90;;;;;;7511282;26;20651;-74
2024/05/08 04:54:29;;;;;;;23.13;21.02;;;15.10;99.90;;;;;;7506849;26;20233;-73
2024/05/08 04:57:52;;;;;;;23.65;21.40;;;14.90;99.90;;;;;;7499428;26;20244;-73
2024/05/08 05:01:15;;;;;;;20.80;18.98;;;14.80;99.90;;;;;;7510616;26;20232;-74
2024/05/08 05:04:41;;;;;;;23.42;21.40;;;14.70;99.90;;;;;;7518735;26;20304;-74
2024/05/08 05:08:04;;;;;;;23.65;21.65;;;14.60;99.90;;;;;;7518783;26;20267;-74
2024/05/08 05:11:27;;;;;;;23.25;21.27;;;14.60;99.90;;;;;;7511790;26;20666;-73
2024/05/08 05:14:50;;;;;;;24.92;22.83;;;14.70;99.90;;;;;;7519736;26;20248;-74
2024/05/08 05:18:12;;;;;;;25.70;23.60;;;14.70;99.90;;;;;;7507976;26;20804;-74
2024/05/08 05:21:38;;;;;;;24.20;22.20;;;14.70;99.90;;;;;;7501271;26;20811;-73
2024/05/08 05:25:01;;;;;;;24.98;22.83;;;14.70;99.90;;;;;;7512808;26;20232;-73
2024/05/08 05:28:25;;;;;;;26.60;24.23;;;14.70;99.90;;;;;;7517150;26;20742;-73
2024/05/08 05:35:38;;;;;;;25.00;22.80;;;14.80;99.90;;;;;;7393047;26;20232;-74
2024/05/08 05:39:04;;;;;;;24.60;22.30;;;14.90;99.90;;;;;;7520175;26;20279;-74
2024/05/08 05:46:06;;;;;;;26.08;23.67;;;15.10;99.90;;;;;;7521418;26;20575;-74
2024/05/08 05:49:29;;;;;;;26.13;23.60;;;15.10;99.90;;;;;;7511090;26;20229;-73
2024/05/08 05:52:52;;;;;;;26.27;24.02;;;15.10;99.90;;;;;;7497659;26;20571;-73
2024/05/08 05:56:18;;;;;;;28.33;25.83;;;15.00;99.90;;;;;;7511192;26;20322;-73
2024/05/08 05:59:42;;;;;;;26.50;24.13;;;15.00;99.90;;;;;;7510020;26;20279;-74
2024/05/08 06:03:05;;;;;;;25.58;23.38;;;15.00;99.90;;;;;;7504949;26;20228;-74
2024/05/08 06:06:29;;;;;;;24.08;22.02;;;15.00;99.90;;;;;;7514482;26;20230;-74
2024/05/08 06:09:52;;;;;;;24.17;21.92;;;14.90;99.90;;;;;;7493898;26;20232;-74
2024/05/08 06:13:17;;;;;;;22.52;20.70;;;14.80;99.90;;;;;;7513422;26;20288;-75
2024/05/08 06:16:40;;;;;;;26.92;24.50;;;14.80;99.90;;;;;;7494297;26;20249;-73
2024/05/08 06:20:03;;;;;;;23.95;21.95;;;14.90;99.90;;;;;;7495306;26;20341;-73
2024/05/08 06:23:27;;;;;;;25.30;23.08;;;14.80;99.90;;;;;;7520015;26;20343;-74
2024/05/08 06:26:50;;;;;;;24.42;22.33;;;14.80;99.90;;;;;;7512090;26;20336;-74
2024/05/08 06:30:16;;;;;;;27.75;25.20;;;14.90;99.90;;;;;;7514888;26;20339;-74
2024/05/08 06:33:40;;;;;;;24.67;22.45;;;14.90;99.90;;;;;;7492948;26;20228;-75
2024/05/08 06:37:03;;;;;;;20.95;19.25;;;15.00;99.90;;;;;;7509667;26;20279;-73
2024/05/08 06:40:26;;;;;;;20.95;19.15;;;15.10;99.90;;;;;;7517601;26;20228;-74
2024/05/08 06:43:49;;;;;;;24.42;22.02;;;15.10;99.90;;;;;;7525228;26;20232;-73
2024/05/08 06:47:15;;;;;;;20.10;18.40;;;15.10;99.90;;;;;;7522927;26;20275;-73
2024/05/08 06:50:37;;;;;;;19.77;18.17;;;14.90;99.90;;;;;;7499233;26;20233;-73
2024/05/08 06:54:01;;;;;;;15.68;14.48;;;14.80;99.90;;;;;;7494660;26;20233;-74
2024/05/08 06:57:24;;;;;;;17.20;15.70;;;14.70;99.90;;;;;;7513436;26;20232;-73
2024/05/08 07:00:47;;;;;;;16.98;15.40;;;14.60;99.90;;;;;;7513890;26;20293;-74
2024/05/08 07:04:13;;;;;;;16.48;15.20;;;14.70;99.90;;;;;;7521281;26;20329;-72
2024/05/08 07:07:36;;;;;;;15.40;14.20;;;14.90;99.90;;;;;;7510816;26;20683;-73
2024/05/08 07:10:59;;;;;;;15.07;13.98;;;14.80;99.90;;;;;;7514328;26;20233;-72
2024/05/08 07:14:21;;;;;;;15.85;14.55;;;15.00;99.90;;;;;;7520498;26;20240;-72
2024/05/08 07:17:44;;;;;;;17.77;16.27;;;14.90;99.90;;;;;;7511849;26;20268;-73
2024/05/08 07:21:10;;;;;;;16.85;15.27;;;14.90;99.90;;;;;;7515896;26;20272;-72
2024/05/08 07:24:33;;;;;;;11.95;11.10;;;15.00;99.90;;;;;;7514333;26;20244;-73
2024/05/08 07:27:57;;;;;;;15.00;13.80;;;15.00;99.90;;;;;;7505029;26;20279;-73
2024/05/08 07:31:19;;;;;;;11.35;10.55;;;14.80;99.90;;;;;;7493035;26;20234;-74
2024/05/08 07:34:42;;;;;;;12.38;11.48;;;14.90;99.90;;;;;;7510498;26;20317;-73
2024/05/08 07:38:09;;;;;;;35.85;32.50;;;15.00;99.90;;;;;;7513083;26;20711;-74
2024/05/08 07:41:32;;;;;;;23.77;21.45;;;15.00;99.90;;;;;;7521216;26;20340;-74
2024/05/08 07:44:54;;;;;;;46.88;42.58;;;15.00;99.90;;;;;;7508912;26;20335;-73
2024/05/08 07:48:17;;;;;;;18.08;16.77;;;15.00;99.90;;;;;;7509103;26;20226;-74
2024/05/08 07:51:40;;;;;;;20.27;18.95;;;14.90;99.90;;;;;;7506709;26;20291;-73
2024/05/08 07:55:06;;;;;;;13.95;12.75;;;15.00;99.90;;;;;;7513864;26;20237;-74
2024/05/08 07:58:29;;;;;;;14.60;13.32;;;15.00;99.90;;;;;;7505179;26;20334;-75
2024/05/08 08:01:52;;;;;;;10.38;9.57;;;15.20;99.90;;;;;;7496173;26;20275;-73
2024/05/08 08:05:15;;;;;;;10.93;10.10;;;15.10;99.90;;;;;;7504799;26;20233;-74
2024/05/08 08:08:38;;;;;;;10.38;9.57;;;15.20;99.90;;;;;;7507410;26;20311;-74
2024/05/08 08:12:04;;;;;;;10.32;9.63;;;15.30;99.90;;;;;;7522710;26;20562;-74
2024/05/08 08:15:27;;;;;;;10.68;9.80;;;15.30;99.90;;;;;;7517010;26;20240;-72
2024/05/08 08:18:50;;;;;;;11.30;10.48;;;15.20;99.90;;;;;;7504554;26;20583;-73
2024/05/08 08:22:13;;;;;;;11.63;10.82;;;15.40;99.90;;;;;;7489469;26;20292;-73
2024/05/08 08:25:38;;;;;;;9.50;8.90;;;15.30;99.90;;;;;;7516010;26;20322;-71
2024/05/08 08:29:04;;;;;;;9.93;9.25;;;15.40;99.90;;;;;;7505117;26;20323;-74
2024/05/08 08:32:27;;;;;;;9.20;8.50;;;15.40;99.90;;;;;;7510573;26;20229;-73
2024/05/08 08:35:50;;;;;;;8.30;7.70;;;15.40;99.90;;;;;;7522417;26;20240;-72
2024/05/08 08:39:13;;;;;;;8.05;7.45;;;15.50;99.90;;;;;;7518747;26;20224;-73
2024/05/08 08:42:38;;;;;;;11.82;11.02;;;15.60;99.90;;;;;;7511846;26;20341;-74
2024/05/08 08:46:06;;;;;;;8.45;7.85;;;15.70;99.90;;;;;;7511270;26;20279;-74
2024/05/08 08:49:30;;;;;;;8.93;8.15;;;15.70;99.90;;;;;;7504921;26;20332;-73
2024/05/08 08:52:56;;;;;;;7.13;6.63;;;15.60;99.90;;;;;;7517628;26;20233;-75
2024/05/08 08:56:20;;;;;;;7.90;7.28;;;15.50;99.90;;;;;;7524291;26;20702;-74
2024/05/08 08:59:49;;;;;;;7.25;6.75;;;15.40;99.90;;;;;;7520611;26;20229;-74
2024/05/08 09:03:18;;;;;;;7.35;6.85;;;15.60;99.90;;;;;;7519561;26;20231;-74
2024/05/08 09:06:42;;;;;;;7.43;6.88;;;15.70;99.90;;;;;;7502344;26;20277;-73
2024/05/08 09:10:12;;;;;;;5.63;5.20;;;15.90;99.90;;;;;;7526042;26;20232;-73
2024/05/08 09:13:35;;;;;;;6.10;5.63;;;15.90;99.90;;;;;;7499139;26;20236;-73
2024/05/08 09:16:58;;;;;;;6.35;5.85;;;15.70;99.90;;;;;;7519675;26;20268;-73
2024/05/08 09:20:24;;;;;;;5.25;4.95;;;15.70;99.90;;;;;;7506431;26;20345;-73
2024/05/08 09:23:47;;;;;;;6.07;5.68;;;15.60;99.90;;;;;;7515164;26;20232;-74
2024/05/08 09:27:16;;;;;;;6.93;6.30;;;15.50;99.90;;;;;;7508291;26;20229;-74
2024/05/08 09:30:39;;;;;;;5.82;5.43;;;15.50;99.90;;;;;;7499025;26;20241;-73
2024/05/08 09:34:09;;;;;;;6.53;6.10;;;15.60;99.90;;;;;;7498437;26;20332;-72
2024/05/08 09:37:36;;;;;;;6.75;6.35;;;15.60;99.90;;;;;;7500436;26;20227;-75
2024/05/08 09:41:00;;;;;;;6.25;5.85;;;15.50;99.90;;;;;;7501011;26;20225;-73
2024/05/08 09:44:25;;;;;;;7.22;6.72;;;15.60;99.90;;;;;;7488869;26;20275;-74
2024/05/08 09:47:51;;;;;;;8.32;7.82;;;15.60;99.90;;;;;;7509030;26;20233;-75
2024/05/08 09:51:15;;;;;;;8.68;8.07;;;15.70;99.90;;;;;;7511941;26;20236;-75
2024/05/08 09:54:43;;;;;;;6.57;6.07;;;15.90;99.90;;;;;;7519230;26;20270;-73
2024/05/08 09:58:07;;;;;;;7.53;6.85;;;16.10;99.90;;;;;;7504324;26;20275;-75
2024/05/08 10:01:31;;;;;;;7.07;6.47;;;15.90;99.90;;;;;;7495937;26;20267;-73
2024/05/08 10:04:55;;;;;;;8.18;7.68;;;16.00;99.90;;;;;;7506825;26;20229;-73
2024/05/08 10:08:18;;;;;;;6.82;6.30;;;16.10;99.90;;;;;;7515374;26;20283;-74
2024/05/08 10:11:57;;;;;;;6.95;6.55;;;16.10;99.90;;;;;;7510249;26;20230;-75
2024/05/08 10:15:20;;;;;;;11.05;10.18;;;16.10;99.90;;;;;;7502819;26;20336;-74
2024/05/08 10:18:45;;;;;;;8.25;7.72;;;16.10;99.90;;;;;;7503706;26;20240;-75
2024/05/08 10:22:08;;;;;;;10.00;9.20;;;16.10;99.90;;;;;;7506804;26;20393;-73
2024/05/08 10:25:31;;;;;;;8.88;8.15;;;16.00;99.90;;;;;;7505977;26;20275;-73
2024/05/08 10:28:56;;;;;;;9.35;8.65;;;16.00;99.90;;;;;;7516630;26;20719;-73
2024/05/08 10:32:30;;;;;;;7.88;7.38;;;16.00;99.90;;;;;;7505666;26;20280;-75
2024/05/08 10:35:53;;;;;;;7.20;6.80;;;16.10;99.90;;;;;;7505691;26;20241;-75
2024/05/08 10:39:16;;;;;;;8.15;7.65;;;16.10;99.90;;;;;;7502045;26;20715;-74
2024/05/08 10:42:40;;;;;;;7.43;6.93;;;16.10;99.90;;;;;;7498280;26;20720;-74
2024/05/08 10:46:07;;;;;;;7.65;7.15;;;16.10;99.90;;;;;;7521709;26;20233;-76
2024/05/08 10:49:29;;;;;;;7.50;6.97;;;16.10;99.90;;;;;;7507968;26;20289;-75
2024/05/08 10:52:53;;;;;;;9.05;8.35;;;16.20;99.90;;;;;;7508951;26;20241;-75
2024/05/08 10:56:16;;;;;;;7.78;7.07;;;16.20;99.90;;;;;;7515367;26;20233;-75
2024/05/08 10:59:39;;;;;;;8.32;7.72;;;16.30;99.90;;;;;;7513008;26;20233;-73
2024/05/08 11:03:09;;;;;;;9.98;9.23;;;16.30;99.90;;;;;;7511173;26;20224;-75
2024/05/08 11:06:32;;;;;;;11.23;10.43;;;16.20;99.90;;;;;;7495474;26;20225;-75
2024/05/08 11:09:55;;;;;;;14.40;13.25;;;16.00;99.90;;;;;;7517514;26;20588;-74
2024/05/08 11:13:19;;;;;;;15.27;14.15;;;16.10;99.90;;;;;;7507706;26;20232;-74
2024/05/08 11:16:42;;;;;;;16.83;15.52;;;16.00;99.90;;;;;;7522055;26;20286;-74
2024/05/08 11:20:09;;;;;;;20.38;18.52;;;15.90;99.90;;;;;;7487698;26;20264;-74
2024/05/08 11:23:31;;;;;;;21.55;19.85;;;16.00;99.90;;;;;;7496230;26;20241;-75
2024/05/08 11:26:54;;;;;;;21.48;19.65;;;16.20;99.90;;;;;;7505313;26;20344;-76
2024/05/08 11:30:18;;;;;;;21.33;19.27;;;16.50;99.90;;;;;;7498963;26;20233;-73
2024/05/08 11:33:41;;;;;;;26.23;24.13;;;16.60;99.90;;;;;;7509477;26;20283;-72
2024/05/08 11:37:06;;;;;;;24.23;22.05;;;16.70;99.90;;;;;;7520601;26;20622;-75
2024/05/08 11:40:29;;;;;;;21.05;19.30;;;16.90;99.90;;;;;;7511970;26;20267;-75
2024/05/08 11:43:54;;;;;;;21.48;19.77;;;17.00;99.90;;;;;;7516293;26;20232;-74
2024/05/08 11:47:17;;;;;;;21.45;19.77;;;17.20;99.90;;;;;;7520655;26;20244;-74
2024/05/08 11:50:41;;;;;;;23.70;21.40;;;17.40;99.90;;;;;;7501134;26;20228;-74
2024/05/08 11:54:06;;;;;;;21.65;19.67;;;17.70;99.90;;;;;;7513415;26;20346;-74
2024/05/08 11:57:29;;;;;;;23.23;21.20;;;17.90;99.90;;;;;;7508640;26;20326;-74
2024/05/08 12:00:52;;;;;;;20.67;19.15;;;18.20;99.90;;;;;;7512203;26;20276;-76
2024/05/08 12:04:15;;;;;;;21.27;19.55;;;18.60;99.90;;;;;;7521048;26;20229;-75
2024/05/08 12:07:37;;;;;;;21.55;19.92;;;18.70;99.90;;;;;;7516385;26;20331;-76
2024/05/08 12:11:05;;;;;;;20.13;18.45;;;19.30;99.90;;;;;;7512711;26;20241;-78
2024/05/08 12:14:27;;;;;;;21.30;19.60;;;19.50;99.90;;;;;;7522239;26;20300;-77
2024/05/08 12:17:50;;;;;;;19.52;18.02;;;19.80;99.90;;;;;;7511280;26;20229;-76
2024/05/08 12:21:13;;;;;;;20.75;19.25;;;20.30;99.90;;;;;;7508344;26;20236;-78
2024/05/08 12:24:36;;;;;;;19.38;17.50;;;20.50;99.90;;;;;;7492927;26;20746;-77
2024/05/08 12:28:02;;;;;;;18.42;16.92;;;20.80;99.90;;;;;;7510011;26;20224;-78
2024/05/08 12:31:25;;;;;;;19.80;18.25;;;20.60;99.90;;;;;;7511557;26;20708;-78
2024/05/08 12:34:48;;;;;;;19.10;17.52;;;20.40;99.90;;;;;;7514143;26;20615;-78
2024/05/08 12:38:11;;;;;;;20.60;19.10;;;20.60;99.90;;;;;;7518135;26;21438;-78
2024/05/08 12:41:35;;;;;;;18.10;16.80;;;20.80;99.90;;;;;;7498793;26;20322;-74
2024/05/08 12:45:00;;;;;;;17.17;15.88;;;20.50;99.90;;;;;;7502738;26;20233;-76
2024/05/08 12:48:23;;;;;;;16.52;15.23;;;20.90;99.90;;;;;;7510312;26;20229;-74
2024/05/08 12:51:46;;;;;;;16.95;15.65;;;21.10;99.90;;;;;;7521241;26;20275;-76
2024/05/08 12:55:11;;;;;;;15.95;14.70;;;20.90;99.90;;;;;;7500815;26;20278;-77
2024/05/08 12:58:34;;;;;;;16.33;15.02;;;20.90;99.90;;;;;;7511982;26;20236;-77
2024/05/08 13:02:00;;;;;;;14.35;13.32;;;21.00;99.90;;;;;;7500010;26;20302;-76
2024/05/08 13:05:23;;;;;;;16.10;14.88;;;21.00;99.90;;;;;;7505038;26;20224;-76
2024/05/08 13:08:46;;;;;;;14.90;13.70;;;21.00;99.90;;;;;;7498019;26;20295;-75
2024/05/08 13:12:09;;;;;;;15.10;13.82;;;20.90;99.90;;;;;;7518064;26;20312;-76
2024/05/08 13:15:32;;;;;;;16.90;15.70;;;20.80;99.90;;;;;;7517436;26;20565;-78
2024/05/08 13:18:57;;;;;;;14.60;13.50;;;20.80;99.90;;;;;;7502653;26;20220;-76
2024/05/08 13:22:20;;;;;;;16.08;14.77;;;20.90;99.90;;;;;;7519036;26;20301;-76
2024/05/08 13:25:43;;;;;;;14.90;13.73;;;20.80;99.90;;;;;;7517596;26;20228;-75
2024/05/08 13:29:05;;;;;;;14.18;13.18;;;20.80;99.90;;;;;;7500783;26;20232;-74
2024/05/08 13:32:28;;;;;;;14.65;13.65;;;20.80;99.90;;;;;;7514508;26;20232;-77
2024/05/08 13:35:54;;;;;;;17.25;15.95;;;20.50;99.90;;;;;;7506690;26;20312;-77
2024/05/08 13:39:17;;;;;;;13.77;12.70;;;20.40;99.90;;;;;;7501248;26;20229;-77
2024/05/08 13:42:39;;;;;;;14.65;13.55;;;20.60;99.90;;;;;;7519028;26;20245;-76
2024/05/08 13:46:03;;;;;;;13.98;12.98;;;20.80;99.90;;;;;;7498905;26;20228;-74
2024/05/08 13:49:27;;;;;;;14.15;13.15;;;20.70;99.90;;;;;;7492115;26;20269;-75
2024/05/08 13:52:53;;;;;;;14.00;12.90;;;20.90;99.90;;;;;;7500828;26;20248;-76
2024/05/08 13:56:16;;;;;;;13.10;11.95;;;20.90;99.90;;;;;;7500416;26;20375;-77
2024/05/08 13:59:40;;;;;;;11.57;10.73;;;21.20;99.90;;;;;;7516751;26;20321;-76
2024/05/08 14:03:03;;;;;;;12.60;11.60;;;21.30;99.90;;;;;;7514029;26;20394;-77
2024/05/08 14:06:25;;;;;;;10.98;10.10;;;21.20;99.90;;;;;;7490841;26;20280;-77
2024/05/08 14:09:51;;;;;;;12.05;11.05;;;21.10;99.90;;;;;;7522355;26;20228;-78
2024/05/08 14:13:14;;;;;;;12.23;11.23;;;21.30;99.90;;;;;;7521192;26;20267;-76
2024/05/08 14:16:37;;;;;;;9.85;9.15;;;21.30;99.90;;;;;;7517140;26;20225;-79
2024/05/08 14:20:00;;;;;;;11.65;10.85;;;21.50;99.90;;;;;;7509031;26;20406;-80
2024/05/08 14:23:23;;;;;;;12.63;11.50;;;21.40;99.90;;;;;;7493721;26;20302;-79
2024/05/08 14:26:50;;;;;;;10.60;9.73;;;21.40;99.90;;;;;;7505250;26;20233;-82
2024/05/08 14:30:13;;;;;;;10.23;8.93;;;21.70;99.90;;;;;;7484650;26;20724;-81
2024/05/08 14:33:36;;;;;;;9.63;8.73;;;21.70;99.90;;;;;;7518975;26;20228;-81
2024/05/08 14:37:01;;;;;;;10.57;9.77;;;21.50;99.90;;;;;;7507771;26;20275;-83
2024/05/08 14:40:24;;;;;;;8.73;8.13;;;21.50;99.90;;;;;;7503117;26;20231;-81
2024/05/08 14:43:52;;;;;;;9.85;9.15;;;21.40;99.90;;;;;;7506317;26;20270;-80
2024/05/08 14:47:15;;;;;;;9.80;8.90;;;21.50;99.90;;;;;;7501895;26;20228;-82
2024/05/08 14:50:39;;;;;;;8.23;7.72;;;21.80;99.90;;;;;;7515554;26;20222;-80
2024/05/08 14:54:02;;;;;;;11.70;10.90;;;21.90;99.90;;;;;;7505111;26;20233;-81
2024/05/08 14:57:28;;;;;;;8.50;7.88;;;22.00;99.90;;;;;;7511505;26;20230;-84
2024/05/08 15:00:53;;;;;;;8.40;7.70;;;21.70;99.90;;;;;;7487947;26;20325;-82
2024/05/08 15:04:16;;;;;;;8.63;8.00;;;21.70;99.90;;;;;;7521717;26;20371;-83
2024/05/08 15:07:39;;;;;;;8.15;7.45;;;21.40;99.90;;;;;;7507303;26;20267;-80
2024/05/08 15:11:02;;;;;;;9.02;8.02;;;21.30;99.90;;;;;;7505117;26;20271;-81
2024/05/08 15:14:25;;;;;;;8.18;7.47;;;21.40;99.90;;;;;;7507215;26;20263;-81
2024/05/08 15:17:51;;;;;;;8.35;7.80;;;21.30;99.90;;;;;;7502796;26;20225;-81
2024/05/08 15:21:14;;;;;;;8.52;7.90;;;21.00;99.90;;;;;;7501362;26;20304;-80
2024/05/08 15:24:37;;;;;;;8.30;7.65;;;20.90;99.90;;;;;;7503596;26;20296;-81
2024/05/08 15:28:00;;;;;;;8.32;7.72;;;20.60;99.90;;;;;;7515254;26;20582;-80
2024/05/08 15:31:23;;;;;;;8.57;8.05;;;20.30;99.90;;;;;;7525383;26;20232;-81
2024/05/08 15:34:49;;;;;;;8.98;8.18;;;20.10;99.90;;;;;;7504741;26;20647;-80
2024/05/08 15:38:12;;;;;;;9.98;9.18;;;19.90;99.90;;;;;;7487529;26;20268;-82
2024/05/08 15:41:35;;;;;;;8.70;8.07;;;19.80;99.90;;;;;;7514516;26;20232;-80
2024/05/08 15:44:58;;;;;;;10.35;9.55;;;19.80;99.90;;;;;;7512956;26;20259;-82
2024/05/08 15:48:21;;;;;;;10.05;9.35;;;19.80;99.90;;;;;;7510471;26;20274;-83
2024/05/08 15:51:48;;;;;;;9.90;9.05;;;19.70;99.90;;;;;;7512500;26;20273;-81
2024/05/08 15:55:11;;;;;;;9.02;8.45;;;19.80;99.90;;;;;;7508255;26;20228;-80
2024/05/08 15:58:34;;;;;;;10.25;9.50;;;19.70;99.90;;;;;;7513359;26;20306;-81
2024/05/08 16:01:57;;;;;;;10.00;9.30;;;19.80;99.90;;;;;;7520169;26;20336;-81
2024/05/08 16:05:20;;;;;;;9.98;9.27;;;19.60;99.90;;;;;;7514765;26;20720;-81
2024/05/08 16:08:45;;;;;;;13.63;12.63;;;19.50;99.90;;;;;;7500383;26;20240;-80
2024/05/08 16:12:09;;;;;;;11.65;10.65;;;19.60;99.90;;;;;;7506713;26;20232;-81
2024/05/08 16:15:32;;;;;;;15.30;14.20;;;19.20;99.90;;;;;;7505063;26;20245;-81
2024/05/08 16:18:55;;;;;;;12.68;11.68;;;19.20;99.90;;;;;;7514880;26;20754;-81
2024/05/08 16:22:18;;;;;;;12.00;10.90;;;19.20;99.90;;;;;;7507674;26;20245;-80
2024/05/08 16:25:45;;;;;;;11.82;10.98;;;19.10;99.90;;;;;;7521991;26;20267;-80
2024/05/08 16:29:08;;;;;;;10.95;10.13;;;19.20;99.90;;;;;;7518212;26;20259;-81
2024/05/08 16:32:31;;;;;;;11.38;10.60;;;19.20;99.90;;;;;;7514707;26;20272;-80
2024/05/08 16:35:54;;;;;;;13.88;12.85;;;19.10;99.90;;;;;;7514694;26;20229;-79
2024/05/08 16:39:17;;;;;;;10.32;9.63;;;19.20;99.90;;;;;;7514475;26;20229;-79
2024/05/08 16:42:42;;;;;;;10.85;10.05;;;19.30;99.90;;;;;;7516759;26;20240;-79
2024/05/08 16:46:09;;;;;;;10.45;9.75;;;19.50;99.90;;;;;;7507595;26;20233;-79
2024/05/08 16:49:32;;;;;;;11.38;10.52;;;19.60;99.90;;;;;;7514100;26;20738;-82
2024/05/08 16:52:56;;;;;;;11.60;10.80;;;19.50;99.90;;;;;;7509349;26;20266;-80
2024/05/08 16:56:19;;;;;;;12.50;11.40;;;19.30;99.90;;;;;;7517247;26;20789;-79
2024/05/08 16:59:46;;;;;;;12.32;11.43;;;19.30;99.90;;;;;;7512403;26;20229;-81
2024/05/08 17:03:09;;;;;;;12.13;11.20;;;19.20;99.90;;;;;;7519000;26;20271;-79
2024/05/08 17:06:32;;;;;;;12.35;11.45;;;19.00;99.90;;;;;;7500159;26;20758;-79
2024/05/08 17:09:55;;;;;;;15.35;14.25;;;18.80;99.90;;;;;;7510016;26;20268;-78
2024/05/08 17:13:18;;;;;;;11.25;10.55;;;18.70;99.90;;;;;;7514949;26;20614;-79
2024/05/08 17:16:44;;;;;;;13.88;12.95;;;18.60;99.90;;;;;;7499258;26;20249;-80
2024/05/08 17:20:08;;;;;;;13.30;12.20;;;18.50;99.90;;;;;;7512790;26;20232;-80
2024/05/08 17:23:31;;;;;;;14.52;13.48;;;18.40;99.90;;;;;;7503690;26;20233;-80
2024/05/08 17:26:54;;;;;;;14.32;13.15;;;18.40;99.90;;;;;;7511493;26;20225;-81